Cleveland, Ohio
Traffic Map
Current Weather Conditions
Cleveland, Ohio
Overcast Light Snow
Overcast
-7°
Feels Like: -15°
Wind Chill: -15° Ceiling: 2800
Heat Index: -7° Visibility: 3mi
Dew Point: -11° Wind: 17mph
Humidity: 74% Direction: 50° (NE)
Pressure: 29.88in Gusts: 25mph
Raw Report DataKBKL 260602Z 05015G22KT 3SM -SN OVC028 M07/M11 A2988 RMK AO2 P0000 T10671106
Traffic Incident Summary
Active as of:
Severity:
Category:
InformationThere was an issue retrieving the traffic information for this location. Please try a different location or try again shortly.
Advertisements
Track Severe Weather on mobile